Time;durP1;ratioP1;P1;durP2;ratioP2;P2;SDS_P1;SDS_P2;PMS_P1;PMS_P2;Temp;Humidity;BMP_temperature;BMP_pressure;BME280_temperature;BME280_humidity;BME280_pressure;Samples;Min_cycle;Max_cycle;Signal;HPM_P1;HPM_P2
2021/07/30 00:00:42;;;;;;;3.95;3.55;;;20.10;99.90;;;;;;6248373;23;20032;-92
2021/07/30 00:03:07;;;;;;;7.75;3.67;;;20.10;99.90;;;;;;6247874;23;20335;-91
2021/07/30 00:05:37;;;;;;;4.25;3.35;;;20.10;99.90;;;;;;6247973;23;20075;-91
2021/07/30 00:08:03;;;;;;;4.38;3.83;;;20.10;99.90;;;;;;6247739;22;20351;-92
2021/07/30 00:10:28;;;;;;;3.70;3.20;;;20.20;99.90;;;;;;6247225;23;20031;-92
2021/07/30 00:12:57;;;;;;;4.88;3.63;;;20.20;99.90;;;;;;6228667;23;20023;-92
2021/07/30 00:15:23;;;;;;;4.68;3.60;;;20.20;99.90;;;;;;6222483;23;20032;-92
2021/07/30 00:17:51;;;;;;;3.67;3.38;;;20.20;99.90;;;;;;6249097;23;19992;-92
2021/07/30 00:20:17;;;;;;;4.25;3.38;;;20.20;99.90;;;;;;6247724;23;20008;-92
2021/07/30 00:22:42;;;;;;;4.15;3.63;;;20.20;99.90;;;;;;6249366;23;19998;-91
2021/07/30 00:25:09;;;;;;;3.53;3.22;;;20.20;99.90;;;;;;6222275;23;20362;-92
2021/07/30 00:27:37;;;;;;;4.00;3.58;;;20.20;99.90;;;;;;6222196;23;20131;-91
2021/07/30 00:30:04;;;;;;;3.85;3.45;;;20.20;99.90;;;;;;6222494;23;20008;-92
2021/07/30 00:32:29;;;;;;;4.35;3.70;;;20.20;99.90;;;;;;6222499;23;20008;-91
2021/07/30 00:34:55;;;;;;;3.65;3.33;;;20.20;99.90;;;;;;6222148;23;20010;-91
2021/07/30 00:37:21;;;;;;;3.50;3.20;;;20.30;99.90;;;;;;6247664;23;20001;-91
2021/07/30 00:39:46;;;;;;;4.35;3.28;;;20.30;99.90;;;;;;6222196;23;20000;-92
2021/07/30 00:42:12;;;;;;;3.90;3.50;;;20.30;99.90;;;;;;6222086;23;20019;-93
2021/07/30 00:44:38;;;;;;;3.53;3.13;;;20.30;99.90;;;;;;6222200;23;20384;-92
2021/07/30 00:47:04;;;;;;;3.45;3.15;;;20.40;99.90;;;;;;6221950;23;20125;-92
2021/07/30 00:49:39;;;;;;;4.72;3.95;;;20.30;99.90;;;;;;6222311;23;19996;-93
2021/07/30 00:52:08;;;;;;;4.90;3.30;;;20.40;99.90;;;;;;6248476;23;20008;-92
2021/07/30 00:54:37;;;;;;;4.00;3.05;;;20.40;99.90;;;;;;6248872;23;20001;-92
2021/07/30 00:57:04;;;;;;;3.95;3.58;;;20.50;99.90;;;;;;6222210;23;20012;-93
2021/07/30 00:59:31;;;;;;;4.60;3.97;;;20.50;99.90;;;;;;6222178;23;20087;-92
2021/07/30 01:01:57;;;;;;;4.43;3.70;;;20.40;99.90;;;;;;6220928;23;20005;-92
2021/07/30 01:04:24;;;;;;;4.70;3.97;;;20.40;99.90;;;;;;6220356;23;20031;-92
2021/07/30 01:06:50;;;;;;;4.05;3.65;;;20.40;99.90;;;;;;6248315;23;20034;-91
2021/07/30 01:09:16;;;;;;;4.38;3.35;;;20.30;99.90;;;;;;6222223;23;20007;-91
2021/07/30 01:11:44;;;;;;;4.05;3.20;;;20.20;99.90;;;;;;6221420;23;20317;-92
2021/07/30 01:14:13;;;;;;;9.45;4.10;;;20.10;99.90;;;;;;6221953;23;20008;-93
2021/07/30 01:16:42;;;;;;;6.70;4.30;;;20.10;99.90;;;;;;6221722;23;20005;-92
2021/07/30 01:19:25;;;;;;;5.45;4.75;;;20.10;99.90;;;;;;6221439;23;20087;-91
2021/07/30 01:21:55;;;;;;;4.78;4.28;;;20.00;99.90;;;;;;6221768;23;20324;-92
2021/07/30 01:24:24;;;;;;;5.65;4.47;;;20.00;99.90;;;;;;6221746;23;20054;-92
2021/07/30 01:26:51;;;;;;;6.85;4.60;;;20.00;99.90;;;;;;6221502;23;20099;-92
2021/07/30 01:29:21;;;;;;;6.25;4.95;;;20.00;99.90;;;;;;6221879;23;20059;-93
2021/07/30 01:31:54;;;;;;;6.07;4.70;;;20.10;99.90;;;;;;6221172;23;20032;-93
2021/07/30 01:34:19;;;;;;;6.85;5.07;;;20.00;99.90;;;;;;6221676;23;20019;-92
2021/07/30 01:36:45;;;;;;;5.78;4.25;;;20.00;99.90;;;;;;6221709;23;20373;-92
2021/07/30 01:39:11;;;;;;;6.43;4.82;;;20.00;99.90;;;;;;6221821;23;20127;-93
2021/07/30 01:41:37;;;;;;;7.25;4.53;;;20.00;99.90;;;;;;6221588;23;20027;-93
2021/07/30 01:44:03;;;;;;;4.63;3.97;;;20.10;99.90;;;;;;6221691;23;20008;-93
2021/07/30 01:46:29;;;;;;;5.45;4.07;;;20.00;99.90;;;;;;6221291;23;20004;-92
2021/07/30 01:48:55;;;;;;;5.30;4.40;;;20.00;99.90;;;;;;6221605;23;20008;-92
2021/07/30 01:51:23;;;;;;;5.22;3.78;;;19.90;99.90;;;;;;6221684;23;20004;-94
2021/07/30 01:53:50;;;;;;;7.70;4.75;;;19.80;99.90;;;;;;6221624;23;20431;-92
2021/07/30 01:56:18;;;;;;;4.45;3.90;;;19.80;99.90;;;;;;6221529;23;19996;-93
2021/07/30 01:58:44;;;;;;;5.20;4.45;;;19.70;99.90;;;;;;6221504;23;20004;-93
2021/07/30 02:01:10;;;;;;;6.88;5.18;;;19.60;99.90;;;;;;6221461;23;20007;-93
2021/07/30 02:03:36;;;;;;;6.55;4.50;;;19.60;99.90;;;;;;6246676;23;20012;-92
2021/07/30 02:06:09;;;;;;;6.13;4.63;;;19.50;99.90;;;;;;6221589;23;20300;-93
2021/07/30 02:08:35;;;;;;;7.30;3.88;;;19.50;99.90;;;;;;6221131;23;20059;-93
2021/07/30 02:11:08;;;;;;;4.82;4.00;;;19.50;99.90;;;;;;6221420;22;20011;-93
2021/07/30 02:16:18;;;;;;;5.13;4.10;;;19.50;99.90;;;;;;6247601;23;20007;-93
2021/07/30 02:18:48;;;;;;;5.05;4.00;;;19.50;99.90;;;;;;6221589;23;19996;-93
2021/07/30 02:21:16;;;;;;;4.40;3.90;;;19.50;99.90;;;;;;6248121;23;20426;-93
2021/07/30 02:23:51;;;;;;;4.38;3.85;;;19.50;99.90;;;;;;6221354;23;20000;-92
2021/07/30 02:26:19;;;;;;;4.95;3.97;;;19.60;99.90;;;;;;6221467;23;20087;-93
2021/07/30 02:28:45;;;;;;;5.20;3.72;;;19.60;99.90;;;;;;6221435;23;20020;-92
2021/07/30 02:31:11;;;;;;;3.85;3.45;;;19.60;99.90;;;;;;6221231;23;20435;-93
2021/07/30 02:33:36;;;;;;;4.80;3.80;;;19.60;99.90;;;;;;6221272;23;20000;-92
2021/07/30 02:36:02;;;;;;;6.00;4.10;;;19.60;99.90;;;;;;6221408;23;20042;-93
2021/07/30 02:38:30;;;;;;;5.35;4.38;;;19.60;99.90;;;;;;6221261;23;20000;-92
2021/07/30 02:40:59;;;;;;;5.30;4.22;;;19.60;99.90;;;;;;6221145;23;20362;-92
2021/07/30 02:43:27;;;;;;;4.47;4.00;;;19.60;99.90;;;;;;6221182;23;20008;-92
2021/07/30 02:45:53;;;;;;;4.07;3.55;;;19.50;99.90;;;;;;6221492;23;20003;-92
2021/07/30 02:48:19;;;;;;;3.92;3.47;;;19.60;99.90;;;;;;6220845;23;20016;-92
2021/07/30 02:50:44;;;;;;;4.10;3.70;;;19.60;99.90;;;;;;6247686;23;19996;-92
2021/07/30 02:53:10;;;;;;;4.45;3.72;;;19.50;99.90;;;;;;6220671;23;20055;-92
2021/07/30 02:55:36;;;;;;;4.38;3.55;;;19.60;99.90;;;;;;6221224;23;20043;-92
2021/07/30 02:58:04;;;;;;;5.20;3.80;;;19.50;99.90;;;;;;6220788;23;20001;-92
2021/07/30 03:00:32;;;;;;;4.72;3.88;;;19.50;99.90;;;;;;6247742;23;20026;-92
2021/07/30 03:03:01;;;;;;;5.18;4.03;;;19.60;99.90;;;;;;6247644;23;19996;-92
2021/07/30 03:05:27;;;;;;;4.25;3.55;;;19.50;99.90;;;;;;6247282;23;20072;-92
2021/07/30 03:07:52;;;;;;;3.88;3.47;;;19.60;99.90;;;;;;6221103;22;20450;-93
2021/07/30 03:10:21;;;;;;;4.28;3.88;;;19.60;99.90;;;;;;6221449;23;20079;-92
2021/07/30 03:12:51;;;;;;;4.05;3.63;;;19.60;99.90;;;;;;6220710;23;20016;-92
2021/07/30 03:15:20;;;;;;;8.20;4.30;;;19.70;99.90;;;;;;6221075;23;20072;-92
2021/07/30 03:17:55;;;;;;;4.07;3.40;;;19.70;99.90;;;;;;6220526;23;19996;-93
2021/07/30 03:20:20;;;;;;;5.30;4.25;;;19.80;99.90;;;;;;6221267;23;20376;-92
2021/07/30 03:22:46;;;;;;;4.55;4.03;;;19.80;99.90;;;;;;6220587;23;20000;-92
2021/07/30 03:25:12;;;;;;;5.63;4.45;;;19.80;99.90;;;;;;6220779;23;20004;-93
2021/07/30 03:27:40;;;;;;;5.30;4.28;;;19.80;99.90;;;;;;6221760;23;20511;-93
2021/07/30 03:30:06;;;;;;;5.78;4.20;;;19.80;99.90;;;;;;6223098;23;20000;-92
2021/07/30 03:32:32;;;;;;;4.72;4.28;;;19.90;99.90;;;;;;6248283;23;20335;-92
2021/07/30 03:35:00;;;;;;;4.97;3.78;;;19.90;99.90;;;;;;6222824;23;20000;-92
2021/07/30 03:37:26;;;;;;;5.07;4.55;;;20.00;99.90;;;;;;6223187;23;20438;-92
2021/07/30 03:39:52;;;;;;;4.38;3.97;;;20.00;99.90;;;;;;6248199;23;20004;-93
2021/07/30 03:42:18;;;;;;;6.95;4.15;;;20.00;99.90;;;;;;6222924;23;20323;-93
2021/07/30 03:44:43;;;;;;;6.78;5.00;;;20.10;99.90;;;;;;6247993;23;20027;-92
2021/07/30 03:47:09;;;;;;;5.45;4.80;;;20.10;99.90;;;;;;6249274;23;20008;-93
2021/07/30 03:49:35;;;;;;;5.78;4.68;;;20.10;99.90;;;;;;6222918;23;20012;-93
2021/07/30 03:52:00;;;;;;;5.10;4.57;;;20.20;99.90;;;;;;6222682;23;19996;-92
2021/07/30 03:54:28;;;;;;;5.57;4.38;;;20.20;99.90;;;;;;6223093;23;20000;-92
2021/07/30 03:56:54;;;;;;;6.90;4.90;;;20.20;99.90;;;;;;6222874;23;19996;-93
2021/07/30 03:59:22;;;;;;;4.75;4.25;;;20.20;99.90;;;;;;6222785;23;20007;-92
2021/07/30 04:01:50;;;;;;;5.55;4.55;;;20.30;99.90;;;;;;6249549;23;19999;-93
2021/07/30 04:04:19;;;;;;;5.57;4.90;;;20.30;99.90;;;;;;6222444;23;20000;-92
2021/07/30 04:06:45;;;;;;;6.22;4.78;;;20.40;99.90;;;;;;6222324;23;20052;-92
2021/07/30 04:09:14;;;;;;;5.20;4.32;;;20.40;99.90;;;;;;6248733;22;20008;-92
2021/07/30 04:11:41;;;;;;;8.00;5.32;;;20.40;99.90;;;;;;6225996;23;20016;-92
2021/07/30 04:14:07;;;;;;;4.80;4.35;;;20.50;99.90;;;;;;6247693;23;20078;-90
2021/07/30 04:16:34;;;;;;;8.25;5.20;;;20.50;99.90;;;;;;6247719;23;20451;-92
2021/07/30 04:19:01;;;;;;;5.70;4.95;;;20.60;99.90;;;;;;6248190;23;20000;-92
2021/07/30 04:21:29;;;;;;;7.07;4.82;;;20.60;99.90;;;;;;6247469;23;19996;-92
2021/07/30 04:23:55;;;;;;;5.90;4.85;;;20.70;99.90;;;;;;6247539;23;20420;-93
2021/07/30 04:26:22;;;;;;;7.30;5.43;;;20.70;99.90;;;;;;6247941;23;19997;-92
2021/07/30 04:28:50;;;;;;;7.80;5.68;;;20.80;99.90;;;;;;6248335;23;20517;-93
2021/07/30 04:31:19;;;;;;;6.25;5.28;;;20.80;99.90;;;;;;6247872;23;20094;-93
2021/07/30 04:33:45;;;;;;;6.38;5.47;;;20.90;99.90;;;;;;6248394;23;20012;-93
2021/07/30 04:36:17;;;;;;;6.05;5.13;;;20.90;99.90;;;;;;6247145;23;20070;-92
2021/07/30 04:38:43;;;;;;;6.68;5.30;;;21.00;99.90;;;;;;6247426;23;20000;-93
2021/07/30 04:41:11;;;;;;;5.35;4.80;;;21.00;99.90;;;;;;6247505;23;20022;-93
2021/07/30 04:43:41;;;;;;;6.88;5.65;;;21.10;99.90;;;;;;6247372;23;19996;-93
2021/07/30 04:46:16;;;;;;;6.47;5.75;;;21.10;99.90;;;;;;6248992;22;20050;-92
2021/07/30 04:48:43;;;;;;;8.02;6.78;;;21.10;99.90;;;;;;6248085;23;20012;-93
2021/07/30 04:51:09;;;;;;;8.10;5.70;;;21.20;99.90;;;;;;6247514;23;19996;-93
2021/07/30 04:53:35;;;;;;;6.68;6.07;;;21.30;99.90;;;;;;6247736;23;20000;-92
2021/07/30 04:56:01;;;;;;;7.43;6.03;;;21.40;99.90;;;;;;6247424;23;20007;-93
2021/07/30 04:58:28;;;;;;;8.30;6.82;;;21.40;99.90;;;;;;6248020;23;20011;-92
2021/07/30 05:00:54;;;;;;;7.55;6.63;;;21.60;99.90;;;;;;6246908;23;20109;-92
2021/07/30 05:03:20;;;;;;;9.07;7.22;;;21.70;99.90;;;;;;6247031;23;20416;-93
2021/07/30 05:05:46;;;;;;;7.32;6.63;;;21.80;99.90;;;;;;6246980;23;20028;-92
2021/07/30 05:08:14;;;;;;;7.13;6.43;;;22.00;99.90;;;;;;6247257;22;20038;-92
2021/07/30 05:10:47;;;;;;;9.63;7.97;;;22.10;99.90;;;;;;6247006;23;20008;-92
2021/07/30 05:13:13;;;;;;;8.40;7.60;;;22.30;99.90;;;;;;6223965;23;20051;-92
2021/07/30 05:15:38;;;;;;;9.88;7.70;;;22.40;99.90;;;;;;6221330;23;20031;-92
2021/07/30 05:18:06;;;;;;;8.05;7.25;;;22.50;99.90;;;;;;6221682;23;20228;-92
2021/07/30 05:20:39;;;;;;;9.18;7.47;;;22.70;99.90;;;;;;6248598;23;20304;-92
2021/07/30 05:23:11;;;;;;;9.63;8.50;;;22.80;99.90;;;;;;6221975;23;20008;-92
2021/07/30 05:25:40;;;;;;;9.60;8.48;;;23.00;99.90;;;;;;6221641;23;20714;-92
2021/07/30 05:28:06;;;;;;;11.18;8.93;;;23.10;99.90;;;;;;6221396;23;20492;-92
2021/07/30 05:30:34;;;;;;;9.43;8.52;;;23.20;99.90;;;;;;6248814;23;20079;-91
2021/07/30 05:32:59;;;;;;;13.10;8.57;;;23.30;99.90;;;;;;6221388;23;20022;-92
2021/07/30 05:35:27;;;;;;;10.27;8.60;;;23.40;99.90;;;;;;6221250;23;20008;-91
2021/07/30 05:37:55;;;;;;;9.20;8.25;;;23.50;99.90;;;;;;6221110;23;20010;-92
2021/07/30 05:40:21;;;;;;;10.02;8.43;;;23.70;99.90;;;;;;6221230;23;20091;-92
2021/07/30 05:42:47;;;;;;;12.90;8.55;;;23.70;99.90;;;;;;6221004;23;19992;-90
2021/07/30 05:45:17;;;;;;;10.10;8.63;;;23.80;99.90;;;;;;6224946;23;20342;-88
2021/07/30 05:47:46;;;;;;;11.15;10.05;;;23.90;99.90;;;;;;6227892;23;20014;-90
2021/07/30 05:50:15;;;;;;;9.63;8.73;;;24.00;99.90;;;;;;6224952;23;19996;-89
2021/07/30 05:52:40;;;;;;;10.00;9.00;;;24.00;99.90;;;;;;6249394;23;20423;-90
2021/07/30 05:55:09;;;;;;;9.38;8.38;;;24.00;99.90;;;;;;6247040;23;20007;-92
2021/07/30 05:57:35;;;;;;;11.38;9.82;;;24.00;99.90;;;;;;6246290;23;20008;-91
2021/07/30 06:00:05;;;;;;;11.30;9.55;;;24.00;99.90;;;;;;6221244;23;20007;-90
2021/07/30 06:02:34;;;;;;;10.57;9.45;;;24.00;99.90;;;;;;6220967;23;20324;-93
2021/07/30 06:05:02;;;;;;;9.82;8.82;;;24.00;99.90;;;;;;6221182;23;20016;-91
2021/07/30 06:07:31;;;;;;;11.27;10.13;;;24.00;99.90;;;;;;6220862;23;20012;-91
2021/07/30 06:09:59;;;;;;;10.57;8.75;;;24.10;99.90;;;;;;6220746;23;20015;-91
2021/07/30 06:12:30;;;;;;;9.60;8.68;;;24.10;99.90;;;;;;6250012;22;20019;-91
2021/07/30 06:14:56;;;;;;;10.13;9.13;;;24.20;99.90;;;;;;6220712;23;20004;-91
2021/07/30 06:17:22;;;;;;;10.27;9.27;;;24.20;99.90;;;;;;6220148;23;20043;-91
2021/07/30 06:19:47;;;;;;;10.48;9.45;;;24.40;99.90;;;;;;6220562;23;20005;-91
2021/07/30 06:22:13;;;;;;;11.20;10.05;;;24.40;99.90;;;;;;6219774;23;20455;-89
2021/07/30 06:24:44;;;;;;;11.52;9.57;;;24.50;99.90;;;;;;6220173;23;20430;-91
2021/07/30 06:27:14;;;;;;;11.00;9.90;;;24.50;99.90;;;;;;6219941;23;20004;-91
2021/07/30 06:29:41;;;;;;;10.00;8.93;;;24.50;99.90;;;;;;6231218;23;20035;-91
2021/07/30 06:32:07;;;;;;;10.20;9.23;;;24.60;99.90;;;;;;6233468;23;20004;-90
2021/07/30 06:34:33;;;;;;;9.93;8.93;;;24.60;99.90;;;;;;6224899;23;20035;-91
2021/07/30 06:36:59;;;;;;;10.15;9.25;;;24.70;99.90;;;;;;6220720;23;20050;-91
2021/07/30 06:39:28;;;;;;;11.60;8.88;;;24.90;99.90;;;;;;6220201;23;20027;-91
2021/07/30 06:41:54;;;;;;;9.23;8.27;;;24.90;98.50;;;;;;6221080;23;20400;-90
2021/07/30 06:44:23;;;;;;;9.55;8.65;;;25.00;98.20;;;;;;6219998;23;20008;-91
2021/07/30 06:46:48;;;;;;;9.95;8.95;;;25.00;97.80;;;;;;6220741;23;20428;-91
2021/07/30 06:49:14;;;;;;;8.18;7.38;;;25.10;98.10;;;;;;6220338;23;20099;-92
2021/07/30 06:51:47;;;;;;;8.52;7.72;;;25.20;98.60;;;;;;6220812;23;20007;-90
2021/07/30 06:54:13;;;;;;;9.00;7.32;;;25.30;96.60;;;;;;6220261;23;20004;-90
2021/07/30 06:56:43;;;;;;;9.35;8.45;;;25.30;95.20;;;;;;6219425;23;20036;-91
2021/07/30 06:59:09;;;;;;;9.35;8.55;;;25.30;95.80;;;;;;6219828;23;20015;-92
2021/07/30 07:01:36;;;;;;;10.77;8.98;;;25.30;94.70;;;;;;6219542;23;20040;-92
2021/07/30 07:04:02;;;;;;;11.20;10.20;;;25.30;94.90;;;;;;6220222;23;20000;-92
2021/07/30 07:06:28;;;;;;;9.77;8.30;;;25.20;93.70;;;;;;6220406;23;20053;-92
2021/07/30 07:08:54;;;;;;;9.43;8.52;;;25.30;94.10;;;;;;6220492;23;20086;-93
2021/07/30 07:11:20;;;;;;;9.82;8.35;;;25.30;94.10;;;;;;6222852;22;20497;-91
2021/07/30 07:13:57;;;;;;;7.93;7.22;;;25.30;94.40;;;;;;6224967;23;20000;-93
2021/07/30 07:16:23;;;;;;;9.40;8.38;;;25.50;94.00;;;;;;6223528;23;20051;-92
2021/07/30 07:18:56;;;;;;;9.13;8.23;;;25.50;93.70;;;;;;6223396;23;20048;-91
2021/07/30 07:21:22;;;;;;;10.35;9.10;;;25.50;92.50;;;;;;6224377;23;20000;-90
2021/07/30 07:23:51;;;;;;;8.70;7.90;;;25.50;93.40;;;;;;6222162;23;20138;-92
2021/07/30 07:26:18;;;;;;;7.78;7.07;;;25.60;93.10;;;;;;6221038;23;20015;-92
2021/07/30 07:28:46;;;;;;;8.85;8.05;;;25.70;93.70;;;;;;6220191;23;20018;-92
2021/07/30 07:31:14;;;;;;;7.72;7.03;;;25.80;93.00;;;;;;6219946;23;20008;-92
2021/07/30 07:33:42;;;;;;;8.27;7.32;;;25.90;93.00;;;;;;6220594;23;20073;-91
2021/07/30 07:36:08;;;;;;;8.50;7.70;;;26.10;92.00;;;;;;6220859;23;19997;-91
2021/07/30 07:38:34;;;;;;;7.93;7.15;;;26.20;91.20;;;;;;6220204;23;20004;-91
2021/07/30 07:41:01;;;;;;;9.50;7.35;;;26.20;91.00;;;;;;6219991;23;20000;-90
2021/07/30 07:43:27;;;;;;;9.35;8.07;;;26.30;89.30;;;;;;6220566;23;20388;-92
2021/07/30 07:45:52;;;;;;;7.65;6.95;;;26.30;85.60;;;;;;6219614;23;19996;-91
2021/07/30 07:48:18;;;;;;;8.63;7.82;;;26.20;87.10;;;;;;6220226;23;20019;-92
2021/07/30 07:51:00;;;;;;;8.93;8.13;;;26.20;85.40;;;;;;6246513;23;19996;-92
2021/07/30 07:53:25;;;;;;;8.93;8.05;;;26.20;84.40;;;;;;6219865;23;20040;-91
2021/07/30 07:56:06;;;;;;;9.82;7.72;;;26.20;84.30;;;;;;6220435;23;20051;-91
2021/07/30 07:58:42;;;;;;;8.82;7.95;;;26.20;81.10;;;;;;6246070;23;20075;-89
2021/07/30 08:01:10;;;;;;;8.55;7.75;;;26.10;83.70;;;;;;6246469;23;19993;-90
2021/07/30 08:03:35;;;;;;;7.70;6.97;;;26.10;84.80;;;;;;6246061;23;20000;-91
2021/07/30 08:06:01;;;;;;;7.78;7.07;;;26.20;84.40;;;;;;6218761;23;20027;-91
2021/07/30 08:08:27;;;;;;;7.47;6.78;;;26.30;82.90;;;;;;6219674;23;20019;-91
2021/07/30 08:10:57;;;;;;;8.45;7.63;;;26.30;82.60;;;;;;6219390;23;20000;-91
2021/07/30 08:13:23;;;;;;;7.25;6.55;;;26.40;82.60;;;;;;6219913;23;20060;-91
2021/07/30 08:15:48;;;;;;;7.68;6.88;;;26.40;83.80;;;;;;6246616;23;20006;-90
2021/07/30 08:18:14;;;;;;;7.90;7.10;;;26.50;84.50;;;;;;6247968;23;20033;-91
2021/07/30 08:20:42;;;;;;;7.13;6.53;;;26.50;83.30;;;;;;6221553;23;20321;-90
2021/07/30 08:23:10;;;;;;;7.50;6.75;;;26.60;82.80;;;;;;6247095;23;20432;-90
2021/07/30 08:25:36;;;;;;;8.23;7.28;;;26.70;82.20;;;;;;6220858;23;20007;-91
2021/07/30 08:28:03;;;;;;;7.38;6.50;;;26.70;80.00;;;;;;6221170;23;20086;-90
2021/07/30 08:30:28;;;;;;;6.40;5.80;;;26.70;79.00;;;;;;6221324;23;20007;-91
2021/07/30 08:32:54;;;;;;;7.15;6.45;;;26.70;77.70;;;;;;6220632;23;20034;-90
2021/07/30 08:35:29;;;;;;;6.32;5.72;;;26.70;78.10;;;;;;6220955;23;20083;-90
2021/07/30 08:37:55;;;;;;;7.22;6.53;;;26.70;78.80;;;;;;6247222;23;20043;-90
2021/07/30 08:40:30;;;;;;;7.43;6.78;;;26.80;77.40;;;;;;6220941;23;20462;-90
2021/07/30 08:42:58;;;;;;;7.35;6.57;;;26.90;77.40;;;;;;6249194;23;20054;-91
2021/07/30 08:45:31;;;;;;;7.80;7.03;;;26.90;78.40;;;;;;6221281;23;20360;-91
2021/07/30 08:48:00;;;;;;;7.70;6.90;;;27.00;77.50;;;;;;6246236;23;20008;-91
2021/07/30 08:50:31;;;;;;;7.82;7.03;;;27.00;76.00;;;;;;6220840;23;20443;-91
2021/07/30 08:53:05;;;;;;;7.40;6.70;;;26.90;76.90;;;;;;6220989;23;20005;-91
2021/07/30 08:55:31;;;;;;;8.57;6.78;;;26.90;77.00;;;;;;6247764;23;20446;-91
2021/07/30 08:57:58;;;;;;;7.70;7.00;;;26.90;78.20;;;;;;6221056;23;20004;-91
2021/07/30 09:00:29;;;;;;;6.68;6.07;;;27.00;77.50;;;;;;6221518;23;20039;-91
2021/07/30 09:02:57;;;;;;;7.63;6.82;;;27.10;77.80;;;;;;6221041;23;20135;-91
2021/07/30 09:05:34;;;;;;;7.55;6.72;;;27.20;76.50;;;;;;6221152;23;20004;-91
2021/07/30 09:08:02;;;;;;;7.55;6.80;;;27.20;74.80;;;;;;6221957;22;20004;-92
2021/07/30 09:10:44;;;;;;;7.93;7.03;;;27.20;76.50;;;;;;6220609;23;20071;-91
2021/07/30 09:13:28;;;;;;;10.02;7.28;;;27.20;72.30;;;;;;6247825;22;20015;-93
2021/07/30 09:16:10;;;;;;;6.88;6.15;;;27.10;72.60;;;;;;6221115;23;20422;-91
2021/07/30 09:18:42;;;;;;;6.80;6.20;;;27.10;74.30;;;;;;6221358;23;19996;-91
2021/07/30 09:21:28;;;;;;;6.22;5.63;;;27.20;74.50;;;;;;6221366;23;20040;-93
2021/07/30 09:24:02;;;;;;;9.30;6.68;;;27.30;75.10;;;;;;6221238;23;20000;-90
2021/07/30 09:26:27;;;;;;;;;;;27.50;74.60;;;;;;6221162;23;20000;-91
2021/07/30 09:29:11;;;;;;;7.68;6.85;;;27.50;73.70;;;;;;6220688;23;20338;-92
2021/07/30 09:32:01;;;;;;;6.65;6.03;;;27.60;74.20;;;;;;6247566;23;20000;-93
2021/07/30 09:34:27;;;;;;;8.25;7.55;;;27.60;73.90;;;;;;6221214;23;20008;-92
2021/07/30 09:37:19;;;;;;;7.32;6.63;;;27.70;72.70;;;;;;6220675;23;20000;-92
2021/07/30 09:39:50;;;;;;;8.50;7.07;;;27.80;72.50;;;;;;6222383;23;20027;-92
2021/07/30 09:42:33;;;;;;;9.00;8.02;;;27.70;72.30;;;;;;6221246;23;20091;-91
2021/07/30 09:45:06;;;;;;;7.47;6.85;;;27.60;72.50;;;;;;6220654;23;20083;-91
2021/07/30 09:47:45;;;;;;;8.10;7.40;;;27.70;72.10;;;;;;6247831;23;20003;-90
2021/07/30 09:50:11;;;;;;;8.43;7.63;;;27.80;72.30;;;;;;6221212;23;20023;-91
2021/07/30 09:52:40;;;;;;;7.78;7.00;;;27.90;71.70;;;;;;6219798;23;20008;-90
2021/07/30 09:55:20;;;;;;;8.27;7.47;;;27.90;71.70;;;;;;6220615;23;20000;-92
2021/07/30 09:57:46;;;;;;;6.65;6.05;;;28.00;71.00;;;;;;6220814;23;20011;-92
2021/07/30 10:00:25;;;;;;;8.52;7.68;;;28.10;72.00;;;;;;6247761;23;20081;-92
2021/07/30 10:02:52;;;;;;;8.18;7.47;;;28.20;69.90;;;;;;6221593;23;20000;-93
2021/07/30 10:05:20;;;;;;;9.45;7.32;;;28.10;69.00;;;;;;6221085;23;20007;-93
2021/07/30 10:07:46;;;;;;;7.65;7.00;;;28.10;69.40;;;;;;6222787;23;20143;-92
2021/07/30 10:10:24;;;;;;;8.55;7.65;;;28.00;69.70;;;;;;6220355;23;20007;-95
2021/07/30 10:12:53;;;;;;;7.00;6.40;;;28.10;69.00;;;;;;6220007;23;20376;-92
2021/07/30 10:15:30;;;;;;;8.02;7.22;;;28.10;68.70;;;;;;6220265;23;20011;-93
2021/07/30 10:18:02;;;;;;;7.55;6.85;;;28.00;66.70;;;;;;6220844;23;20035;-92
2021/07/30 10:20:27;;;;;;;7.90;7.10;;;28.00;67.90;;;;;;6220079;23;20000;-91
2021/07/30 10:23:03;;;;;;;7.38;6.68;;;28.00;67.90;;;;;;6220209;23;20058;-90
2021/07/30 10:25:38;;;;;;;8.18;6.22;;;28.00;67.50;;;;;;6221883;23;20411;-91
2021/07/30 10:28:27;;;;;;;7.60;6.82;;;28.00;66.10;;;;;;6220951;23;20004;-91
2021/07/30 10:31:07;;;;;;;7.32;6.43;;;28.10;66.20;;;;;;6220084;23;20066;-92
2021/07/30 10:33:41;;;;;;;8.00;6.20;;;28.10;65.80;;;;;;6221297;23;20011;-91
2021/07/30 10:36:19;;;;;;;;;;;;;;;;;;;;;
2021/07/30 10:39:11;;;;;;;6.13;5.53;;;28.30;65.30;;;;;;6246850;23;20119;-93
2021/07/30 10:41:40;;;;;;;7.13;6.30;;;28.40;64.70;;;;;;6220271;23;20003;-93
2021/07/30 10:44:08;;;;;;;6.47;5.88;;;28.50;65.70;;;;;;6220817;23;20004;-92
2021/07/30 10:46:34;;;;;;;7.50;6.57;;;28.60;66.80;;;;;;6219818;23;20000;-91
2021/07/30 10:49:02;;;;;;;7.90;6.30;;;28.60;66.80;;;;;;6219819;23;20016;-92
2021/07/30 10:51:31;;;;;;;7.50;6.90;;;28.60;66.70;;;;;;6220159;23;20000;-93
2021/07/30 10:54:05;;;;;;;8.05;6.55;;;28.70;66.00;;;;;;6220471;23;20008;-92
2021/07/30 10:56:40;;;;;;;7.38;6.68;;;28.60;66.40;;;;;;6245115;23;20027;-92
2021/07/30 10:59:24;;;;;;;6.85;6.15;;;28.60;64.90;;;;;;6220428;23;20433;-91
2021/07/30 11:01:55;;;;;;;7.65;6.95;;;28.60;66.00;;;;;;6220653;23;20004;-92
2021/07/30 11:04:23;;;;;;;7.72;7.03;;;28.60;65.40;;;;;;6221043;23;20031;-92
2021/07/30 11:07:04;;;;;;;7.88;7.18;;;28.50;65.60;;;;;;6219859;23;20006;-92
2021/07/30 11:09:40;;;;;;;7.22;6.32;;;28.50;65.50;;;;;;6247161;22;20088;-93
2021/07/30 11:12:13;;;;;;;7.30;6.70;;;28.60;65.40;;;;;;6220340;23;20308;-92
2021/07/30 11:14:45;;;;;;;7.10;6.50;;;28.60;65.70;;;;;;6220330;23;20004;-92
2021/07/30 11:17:14;;;;;;;7.70;7.00;;;28.60;66.00;;;;;;6216218;23;20035;-92
2021/07/30 11:19:48;;;;;;;6.72;6.13;;;28.70;66.50;;;;;;6220110;23;20035;-94
2021/07/30 11:22:18;;;;;;;7.45;6.75;;;28.80;66.90;;;;;;6219523;23;19997;-93
2021/07/30 11:24:46;;;;;;;7.80;7.00;;;28.90;66.70;;;;;;6245627;23;20088;-93
2021/07/30 11:27:19;;;;;;;8.00;7.20;;;29.10;65.70;;;;;;6245278;23;20028;-92
2021/07/30 11:29:52;;;;;;;7.82;7.20;;;29.00;64.70;;;;;;6245945;23;20058;-90
2021/07/30 11:32:24;;;;;;;7.65;6.95;;;29.00;63.30;;;;;;6219827;23;20057;-91
2021/07/30 11:34:54;;;;;;;;;;;28.90;63.70;;;;;;6245793;23;20000;-91
2021/07/30 11:37:49;;;;;;;7.40;6.70;;;28.80;62.30;;;;;;6245923;23;19900;-92
2021/07/30 11:40:23;;;;;;;7.20;6.60;;;28.80;64.00;;;;;;6243446;23;20011;-90
2021/07/30 11:43:04;;;;;;;8.30;7.35;;;28.90;63.30;;;;;;6219814;23;20001;-89
2021/07/30 11:45:35;;;;;;;7.35;6.75;;;28.90;62.90;;;;;;6245373;23;20021;-89
2021/07/30 11:48:10;;;;;;;8.15;7.30;;;28.90;63.30;;;;;;6246370;23;20062;-90
2021/07/30 11:50:40;;;;;;;7.45;6.70;;;28.90;61.50;;;;;;6225260;23;20001;-91
2021/07/30 11:53:12;;;;;;;6.85;6.25;;;28.90;62.30;;;;;;6250192;23;20004;-91
2021/07/30 11:55:58;;;;;;;6.90;6.20;;;29.00;62.50;;;;;;6198614;23;20329;-92
2021/07/30 11:58:26;;;;;;;7.20;6.50;;;29.00;61.20;;;;;;6222769;23;20103;-92
2021/07/30 12:01:07;;;;;;;6.63;5.88;;;29.10;60.90;;;;;;6196368;23;20013;-91
2021/07/30 12:03:35;;;;;;;6.90;6.22;;;29.10;61.70;;;;;;6221722;23;20447;-92
2021/07/30 12:06:02;;;;;;;7.15;6.53;;;29.10;60.90;;;;;;6246735;23;20070;-93
2021/07/30 12:08:45;;;;;;;7.35;6.65;;;29.10;61.00;;;;;;6222199;23;20023;-94
2021/07/30 12:11:13;;;;;;;6.32;5.72;;;29.20;60.80;;;;;;6222400;23;20007;-92
2021/07/30 12:13:40;;;;;;;6.40;5.80;;;29.30;61.60;;;;;;6221920;23;20040;-91
2021/07/30 12:16:06;;;;;;;6.60;5.90;;;29.40;61.10;;;;;;6222041;23;20083;-92
2021/07/30 12:18:47;;;;;;;6.07;5.57;;;29.50;59.60;;;;;;6221743;23;20035;-95
2021/07/30 12:21:16;;;;;;;6.00;5.40;;;29.70;59.80;;;;;;6248134;23;20045;-93
2021/07/30 12:23:52;;;;;;;6.35;5.75;;;29.90;58.30;;;;;;6222385;23;19996;-92
2021/07/30 12:26:35;;;;;;;6.30;5.75;;;30.00;57.30;;;;;;6218815;23;20130;-92
2021/07/30 12:29:38;;;;;;;6.90;6.30;;;30.10;56.60;;;;;;6220744;23;20019;-92
2021/07/30 12:32:18;;;;;;;7.32;5.43;;;30.40;55.60;;;;;;6222609;23;20090;-91
2021/07/30 12:35:04;;;;;;;8.55;5.75;;;30.30;53.80;;;;;;6222638;23;20004;-92
2021/07/30 12:37:32;;;;;;;6.75;6.05;;;30.30;54.10;;;;;;6219126;23;20007;-92
2021/07/30 12:40:03;;;;;;;6.60;5.90;;;30.40;55.20;;;;;;6221129;23;20016;-93
2021/07/30 12:42:42;;;;;;;6.57;5.97;;;30.60;55.30;;;;;;6221206;23;20007;-92
2021/07/30 12:45:14;;;;;;;6.75;6.18;;;30.80;55.80;;;;;;6221057;23;20082;-91
2021/07/30 12:48:03;;;;;;;7.25;6.60;;;31.10;53.50;;;;;;6219125;23;20308;-91
2021/07/30 12:50:47;;;;;;;9.77;5.90;;;31.30;50.50;;;;;;6220328;23;20482;-91
2021/07/30 12:53:37;;;;;;;6.32;5.68;;;31.50;51.20;;;;;;6248284;23;20004;-91
2021/07/30 12:57:03;;;;;;;;;;;;;;;;;;;;;
2021/07/30 13:02:38;;;;;;;5.63;5.13;;;32.10;48.60;;;;;;6226920;23;20331;-91
2021/07/30 13:05:32;;;;;;;;;;;;;;;;;;;;;
2021/07/30 13:08:08;;;;;;;5.95;5.35;;;32.70;48.10;;;;;;6248295;22;20052;-90
2021/07/30 13:10:52;;;;;;;;;;;;;;;;;;;;;